createdAt,value
2023-02-05T00:01:57.081Z,5.60
2023-02-05T00:04:24.507Z,5.50
2023-02-05T00:06:51.374Z,4.40
2023-02-05T00:09:18.600Z,5.22
2023-02-05T00:11:45.515Z,5.18
2023-02-05T00:14:12.835Z,5.50
2023-02-05T00:16:39.741Z,5.00
2023-02-05T00:19:07.661Z,5.53
2023-02-05T00:21:34.603Z,5.22
2023-02-05T00:24:01.805Z,5.45
2023-02-05T00:26:28.848Z,5.13
2023-02-05T00:28:56.549Z,5.07
2023-02-05T00:31:24.265Z,5.60
2023-02-05T00:33:52.232Z,4.72
2023-02-05T00:36:21.287Z,6.15
2023-02-05T00:38:48.675Z,5.32
2023-02-05T00:41:16.650Z,5.07
2023-02-05T00:43:44.406Z,5.60
2023-02-05T00:46:13.480Z,5.32
2023-02-05T00:48:41.800Z,5.43
2023-02-05T00:51:09.403Z,6.00
2023-02-05T00:53:37.064Z,4.65
2023-02-05T00:56:04.542Z,5.18
2023-02-05T00:58:31.994Z,4.35
2023-02-05T01:00:59.155Z,4.55
2023-02-05T01:03:26.459Z,5.28
2023-02-05T01:05:53.375Z,4.95
2023-02-05T01:08:20.581Z,5.10
2023-02-05T01:10:49.450Z,5.15
2023-02-05T01:13:18.343Z,5.35
2023-02-05T01:15:46.338Z,5.03
2023-02-05T01:18:14.279Z,4.95
2023-02-05T01:20:42.578Z,5.30
2023-02-05T01:23:11.592Z,5.07
2023-02-05T01:25:38.681Z,5.55
2023-02-05T01:28:06.930Z,4.53
2023-02-05T01:30:34.997Z,4.55
2023-02-05T01:33:03.551Z,5.80
2023-02-05T01:35:31.339Z,5.47
2023-02-05T01:37:58.784Z,4.30
2023-02-05T01:40:25.686Z,5.18
2023-02-05T01:42:52.904Z,5.43
2023-02-05T01:45:22.638Z,5.57
2023-02-05T01:47:59.041Z,6.10
2023-02-05T01:50:36.541Z,5.70
2023-02-05T01:53:08.639Z,5.85
2023-02-05T01:55:40.233Z,5.32
2023-02-05T01:58:08.478Z,5.75
2023-02-05T02:00:35.496Z,6.85
2023-02-05T02:03:03.932Z,5.82
2023-02-05T02:05:30.942Z,6.78
2023-02-05T02:07:58.421Z,6.00
2023-02-05T02:10:26.312Z,6.97
2023-02-05T02:12:54.884Z,6.35
2023-02-05T02:15:26.073Z,7.15
2023-02-05T02:18:17.912Z,6.50
2023-02-05T02:20:46.501Z,6.03
2023-02-05T02:23:27.783Z,5.60
2023-02-05T02:25:57.765Z,6.10
2023-02-05T02:28:31.007Z,5.65
2023-02-05T02:31:10.818Z,5.45
2023-02-05T02:33:50.529Z,6.50
2023-02-05T02:36:26.943Z,6.72
2023-02-05T02:39:14.017Z,5.97
2023-02-05T02:41:53.902Z,5.90
2023-02-05T02:44:31.153Z,5.32
2023-02-05T02:47:05.665Z,5.70
2023-02-05T02:49:41.272Z,6.43
2023-02-05T02:52:11.044Z,5.80
2023-02-05T02:54:41.412Z,5.85
2023-02-05T02:57:11.296Z,4.95
2023-02-05T02:59:43.100Z,5.67
2023-02-05T03:02:12.946Z,5.82
2023-02-05T03:04:44.198Z,4.88
2023-02-05T03:07:31.585Z,5.80
2023-02-05T03:10:08.262Z,5.18
2023-02-05T03:12:35.461Z,5.40
2023-02-05T03:15:03.252Z,5.35
2023-02-05T03:17:30.713Z,5.35
2023-02-05T03:20:15.390Z,5.90
2023-02-05T03:22:42.639Z,6.30
2023-02-05T03:25:10.677Z,5.40
2023-02-05T03:27:39.144Z,5.30
2023-02-05T03:30:07.978Z,5.43
2023-02-05T03:32:41.355Z,5.63
2023-02-05T03:35:26.887Z,4.97
2023-02-05T03:38:10.727Z,5.93
2023-02-05T03:40:46.200Z,4.55
2023-02-05T03:43:44.334Z,5.00
2023-02-05T03:46:25.189Z,4.90
2023-02-05T03:49:04.460Z,4.60
2023-02-05T03:51:59.473Z,4.30
2023-02-05T03:54:36.846Z,5.18
2023-02-05T03:57:11.646Z,4.97
2023-02-05T03:59:41.247Z,4.32
2023-02-05T04:02:10.571Z,4.50
2023-02-05T04:04:41.132Z,4.57
2023-02-05T04:07:09.251Z,4.53
2023-02-05T04:09:37.102Z,5.15
2023-02-05T04:12:05.265Z,4.72
2023-02-05T04:14:33.437Z,4.90
2023-02-05T04:17:01.104Z,5.40
2023-02-05T04:19:28.133Z,4.25
2023-02-05T04:21:58.446Z,4.53
2023-02-05T04:24:25.495Z,5.15
2023-02-05T04:26:53.402Z,4.22
2023-02-05T04:29:20.837Z,5.07
2023-02-05T04:31:50.920Z,5.20
2023-02-05T04:34:17.877Z,4.97
2023-02-05T04:36:46.080Z,4.70
2023-02-05T04:39:13.166Z,4.30
2023-02-05T04:41:41.306Z,4.18
2023-02-05T04:44:08.347Z,4.38
2023-02-05T04:46:35.606Z,4.90
2023-02-05T04:49:02.642Z,5.25
2023-02-05T04:51:47.850Z,4.70
2023-02-05T04:54:14.989Z,4.88
2023-02-05T04:56:41.930Z,4.90
2023-02-05T04:59:09.218Z,5.22
2023-02-05T05:01:36.492Z,5.13
2023-02-05T05:04:03.683Z,5.47
2023-02-05T05:06:30.998Z,4.53
2023-02-05T05:08:58.175Z,5.10
2023-02-05T05:11:25.838Z,4.30
2023-02-05T05:13:53.355Z,5.55
2023-02-05T05:16:20.542Z,5.60
2023-02-05T05:18:47.805Z,5.10
2023-02-05T05:21:14.778Z,5.25
2023-02-05T05:23:41.944Z,5.13
2023-02-05T05:26:11.401Z,5.57
2023-02-05T05:28:38.795Z,4.72
2023-02-05T05:31:17.315Z,5.80
2023-02-05T05:33:44.625Z,5.28
2023-02-05T05:36:11.618Z,5.63
2023-02-05T05:38:39.005Z,5.53
2023-02-05T05:41:25.242Z,5.45
2023-02-05T05:43:54.413Z,5.05
2023-02-05T05:46:24.229Z,5.13
2023-02-05T05:48:53.528Z,5.70
2023-02-05T05:51:21.918Z,5.03
2023-02-05T05:53:49.237Z,5.22
2023-02-05T05:56:17.042Z,5.30
2023-02-05T05:58:45.225Z,5.78
2023-02-05T06:01:14.065Z,5.93
2023-02-05T06:03:41.303Z,6.30
2023-02-05T06:06:10.461Z,5.85
2023-02-05T06:08:37.834Z,5.30
2023-02-05T06:11:04.840Z,5.88
2023-02-05T06:13:32.100Z,5.45
2023-02-05T06:15:59.062Z,5.35
2023-02-05T06:18:26.286Z,6.05
2023-02-05T06:20:53.207Z,5.32
2023-02-05T06:23:20.649Z,5.95
2023-02-05T06:25:47.752Z,4.95
2023-02-05T06:28:15.015Z,5.65
2023-02-05T06:30:41.942Z,5.22
2023-02-05T06:33:09.229Z,5.43
2023-02-05T06:35:36.666Z,5.22
2023-02-05T06:38:03.951Z,5.00
2023-02-05T06:40:30.858Z,4.82
2023-02-05T06:42:58.122Z,4.45
2023-02-05T06:45:24.986Z,5.10
2023-02-05T06:47:56.242Z,4.95
2023-02-05T06:50:24.144Z,4.65
2023-02-05T06:52:51.658Z,4.78
2023-02-05T06:55:18.868Z,4.55
2023-02-05T06:57:46.107Z,4.72
2023-02-05T07:00:13.994Z,4.35
2023-02-05T07:02:41.378Z,4.82
2023-02-05T07:05:09.085Z,4.85
2023-02-05T07:07:36.322Z,5.22
2023-02-05T07:10:03.578Z,5.10
2023-02-05T07:12:31.131Z,4.93
2023-02-05T07:14:57.997Z,4.40
2023-02-05T07:17:25.469Z,4.90
2023-02-05T07:19:52.444Z,5.00
2023-02-05T07:22:19.201Z,5.25
2023-02-05T07:24:46.417Z,5.07
2023-02-05T07:27:13.341Z,4.60
2023-02-05T07:29:40.537Z,4.75
2023-02-05T07:32:07.710Z,4.93
2023-02-05T07:34:35.224Z,5.20
2023-02-05T07:37:02.185Z,5.00
2023-02-05T07:39:29.416Z,4.45
2023-02-05T07:41:56.562Z,4.93
2023-02-05T07:44:34.822Z,4.57
2023-02-05T07:47:01.673Z,4.80
2023-02-05T07:49:29.258Z,4.57
2023-02-05T07:51:56.414Z,4.68
2023-02-05T07:54:24.642Z,4.28
2023-02-05T07:56:51.661Z,4.78
2023-02-05T07:59:18.794Z,4.55
2023-02-05T08:01:45.637Z,4.20
2023-02-05T08:04:12.879Z,4.55
2023-02-05T08:06:40.645Z,4.57
2023-02-05T08:09:07.810Z,4.55
2023-02-05T08:11:34.758Z,4.53
2023-02-05T08:14:02.447Z,4.28
2023-02-05T08:16:29.517Z,4.47
2023-02-05T08:18:56.736Z,4.80
2023-02-05T08:21:23.739Z,4.60
2023-02-05T08:23:51.252Z,4.43
2023-02-05T08:26:18.913Z,4.53
2023-02-05T08:28:46.284Z,5.43
2023-02-05T08:31:18.473Z,5.20
2023-02-05T08:33:47.818Z,4.70
2023-02-05T08:36:14.776Z,5.40
2023-02-05T08:38:42.279Z,4.88
2023-02-05T08:41:13.678Z,4.88
2023-02-05T08:43:47.322Z,4.60
2023-02-05T08:46:18.685Z,4.82
2023-02-05T08:48:47.635Z,4.97
2023-02-05T08:51:15.394Z,4.85
2023-02-05T08:53:42.582Z,4.72
2023-02-05T08:56:10.899Z,5.07
2023-02-05T08:58:39.338Z,5.53
2023-02-05T09:01:12.861Z,5.22
2023-02-05T09:03:40.529Z,4.55
2023-02-05T09:06:10.001Z,5.22
2023-02-05T09:08:37.676Z,4.38
2023-02-05T09:11:05.305Z,5.05
2023-02-05T09:13:33.674Z,5.25
2023-02-05T09:16:00.576Z,5.35
2023-02-05T09:18:27.867Z,5.75
2023-02-05T09:20:54.878Z,5.60
2023-02-05T09:23:22.909Z,5.30
2023-02-05T09:25:49.890Z,5.55
2023-02-05T09:28:17.379Z,5.65
2023-02-05T09:30:46.204Z,4.88
2023-02-05T09:33:13.798Z,4.78
2023-02-05T09:35:41.357Z,5.55
2023-02-05T09:38:10.024Z,4.93
2023-02-05T09:41:05.468Z,5.07
2023-02-05T09:43:50.760Z,5.13
2023-02-05T09:46:45.247Z,5.85
2023-02-05T09:49:34.830Z,4.88
2023-02-05T09:52:09.154Z,5.18
2023-02-05T09:54:41.927Z,5.30
2023-02-05T09:57:16.360Z,4.95
2023-02-05T09:59:46.946Z,5.03
2023-02-05T10:02:22.613Z,5.53
2023-02-05T10:04:52.419Z,5.20
2023-02-05T10:07:43.397Z,4.88
2023-02-05T10:10:26.794Z,5.03
2023-02-05T10:13:34.726Z,5.00
2023-02-05T10:16:23.291Z,4.97
2023-02-05T10:19:25.467Z,4.03
2023-02-05T10:22:26.620Z,3.67
2023-02-05T10:25:20.890Z,3.10
2023-02-05T10:27:57.262Z,2.67
2023-02-05T10:30:44.846Z,2.95
2023-02-05T10:33:18.906Z,2.75
2023-02-05T10:36:01.048Z,3.20
2023-02-05T10:38:33.915Z,3.05
2023-02-05T10:41:27.063Z,3.05
2023-02-05T10:44:07.687Z,2.97
2023-02-05T10:46:59.191Z,3.15
2023-02-05T10:49:29.796Z,3.10
2023-02-05T10:51:56.803Z,3.38
2023-02-05T10:54:30.504Z,3.30
2023-02-05T10:56:58.788Z,3.17
2023-02-05T10:59:27.979Z,2.97
2023-02-05T11:01:56.890Z,3.30
2023-02-05T11:04:46.179Z,3.53
2023-02-05T11:07:19.771Z,3.47
2023-02-05T11:09:47.033Z,3.70
2023-02-05T11:12:29.193Z,3.97
2023-02-05T11:14:59.659Z,3.40
2023-02-05T11:17:37.048Z,4.57
2023-02-05T11:20:27.405Z,3.72
2023-02-05T11:23:09.463Z,4.25
2023-02-05T11:25:36.806Z,3.90
2023-02-05T11:28:05.640Z,4.65
2023-02-05T11:30:55.926Z,3.90
2023-02-05T11:33:22.434Z,3.90
2023-02-05T11:36:15.613Z,4.80
2023-02-05T11:39:20.816Z,4.75
2023-02-05T11:41:48.612Z,4.65
2023-02-05T11:44:20.338Z,4.70
2023-02-05T11:46:48.023Z,6.03
2023-02-05T11:49:24.865Z,5.35
2023-02-05T11:51:55.678Z,5.35
2023-02-05T11:54:32.558Z,5.60
2023-02-05T11:57:01.417Z,6.40
2023-02-05T11:59:28.795Z,6.72
2023-02-05T12:02:34.330Z,5.65
2023-02-05T12:05:09.406Z,4.22
2023-02-05T12:07:43.190Z,3.88
2023-02-05T12:10:38.381Z,4.82
2023-02-05T12:13:45.571Z,4.05
2023-02-05T12:16:26.940Z,4.00
2023-02-05T12:19:26.587Z,4.68
2023-02-05T12:22:10.518Z,5.28
2023-02-05T12:24:56.500Z,5.60
2023-02-05T12:27:57.587Z,5.30
2023-02-05T12:30:30.627Z,5.13
2023-02-05T12:33:26.233Z,4.88
2023-02-05T12:36:05.650Z,4.78
2023-02-05T12:38:38.397Z,6.75
2023-02-05T12:41:11.687Z,5.07
2023-02-05T12:43:41.156Z,4.82
2023-02-05T12:46:18.282Z,4.50
2023-02-05T12:49:11.850Z,4.13
2023-02-05T12:52:14.359Z,4.65
2023-02-05T12:55:11.685Z,4.40
2023-02-05T12:57:44.767Z,4.78
2023-02-05T13:00:20.554Z,4.35
2023-02-05T13:03:08.972Z,4.50
2023-02-05T13:05:53.055Z,4.13
2023-02-05T13:08:32.133Z,3.55
2023-02-05T13:11:09.607Z,3.45
2023-02-05T13:13:53.729Z,3.53
2023-02-05T13:16:24.096Z,3.38
2023-02-05T13:19:01.544Z,3.53
2023-02-05T13:21:48.013Z,3.45
2023-02-05T13:24:36.934Z,3.25
2023-02-05T13:27:33.297Z,3.15
2023-02-05T13:30:04.843Z,3.92
2023-02-05T13:32:34.424Z,3.90
2023-02-05T13:35:02.079Z,3.50
2023-02-05T13:37:34.798Z,4.68
2023-02-05T13:40:24.157Z,3.70
2023-02-05T13:43:06.131Z,4.40
2023-02-05T13:46:05.791Z,3.17
2023-02-05T13:49:00.409Z,3.72
2023-02-05T13:51:32.274Z,3.33
2023-02-05T13:54:30.736Z,3.67
2023-02-05T13:57:27.316Z,3.60
2023-02-05T13:59:55.902Z,4.70
2023-02-05T14:02:41.993Z,3.40
2023-02-05T14:05:11.083Z,3.63
2023-02-05T14:07:50.128Z,3.65
2023-02-05T14:10:35.183Z,3.55
2023-02-05T14:13:36.773Z,3.33
2023-02-05T14:16:25.466Z,3.40
2023-02-05T14:19:01.761Z,3.78
2023-02-05T14:21:31.552Z,3.70
2023-02-05T14:24:03.931Z,3.58
2023-02-05T14:26:56.346Z,3.38
2023-02-05T14:29:43.793Z,5.07
2023-02-05T14:32:26.044Z,4.10
2023-02-05T14:35:28.925Z,4.15
2023-02-05T14:38:02.521Z,3.88
2023-02-05T14:40:37.958Z,3.72
2023-02-05T14:43:33.421Z,4.10
2023-02-05T14:46:06.166Z,3.88
2023-02-05T14:48:41.723Z,4.25
2023-02-05T14:51:24.827Z,4.05
2023-02-05T14:54:03.072Z,3.58
2023-02-05T14:56:48.046Z,4.03
2023-02-05T14:59:32.063Z,3.92
2023-02-05T15:02:00.170Z,4.75
2023-02-05T15:04:52.870Z,3.78
2023-02-05T15:07:24.965Z,3.78
2023-02-05T15:10:00.426Z,4.28
2023-02-05T15:12:33.401Z,3.95
2023-02-05T15:15:28.147Z,4.00
2023-02-05T15:18:02.393Z,3.45
2023-02-05T15:20:32.575Z,4.13
2023-02-05T15:23:18.263Z,4.77
2023-02-05T15:26:00.698Z,4.20
2023-02-05T15:28:35.318Z,4.13
2023-02-05T15:31:26.053Z,4.35
2023-02-05T15:34:02.182Z,4.63
2023-02-05T15:36:37.615Z,3.72
2023-02-05T15:39:26.997Z,4.30
2023-02-05T15:42:00.035Z,4.10
2023-02-05T15:44:33.580Z,4.20
2023-02-05T15:47:04.341Z,4.97
2023-02-05T15:49:36.890Z,4.32
2023-02-05T15:52:05.882Z,4.35
2023-02-05T15:54:35.934Z,4.60
2023-02-05T15:57:05.327Z,4.30
2023-02-05T15:59:33.887Z,4.43
2023-02-05T16:02:05.867Z,4.32
2023-02-05T16:04:39.020Z,3.90
2023-02-05T16:07:24.026Z,4.55
2023-02-05T16:09:54.570Z,3.35
2023-02-05T16:12:22.074Z,5.13
2023-02-05T16:15:04.765Z,3.92
2023-02-05T16:17:44.725Z,3.70
2023-02-05T16:20:23.415Z,4.03
2023-02-05T16:22:55.856Z,3.88
2023-02-05T16:25:44.222Z,4.40
2023-02-05T16:28:24.683Z,4.00
2023-02-05T16:30:56.246Z,3.92
2023-02-05T16:36:07.213Z,3.95
2023-02-05T16:38:35.521Z,4.40
2023-02-05T16:41:20.580Z,4.15
2023-02-05T16:43:48.103Z,5.20
2023-02-05T16:46:15.667Z,4.60
2023-02-05T16:48:45.573Z,5.28
2023-02-05T16:51:28.131Z,4.20
2023-02-05T16:53:55.013Z,4.25
2023-02-05T16:56:26.135Z,4.40
2023-02-05T16:58:56.399Z,5.20
2023-02-05T17:01:29.928Z,5.37
2023-02-05T17:03:57.380Z,4.72
2023-02-05T17:06:33.959Z,4.95
2023-02-05T17:09:01.309Z,5.30
2023-02-05T17:11:37.327Z,5.95
2023-02-05T17:14:26.066Z,4.78
2023-02-05T17:17:15.615Z,4.22
2023-02-05T17:19:42.849Z,4.40
2023-02-05T17:22:16.307Z,3.40
2023-02-05T17:24:49.339Z,4.05
2023-02-05T17:27:43.491Z,4.03
2023-02-05T17:30:16.258Z,3.95
2023-02-05T17:32:44.642Z,3.40
2023-02-05T17:35:16.007Z,3.20
2023-02-05T17:37:43.433Z,3.30
2023-02-05T17:40:13.208Z,4.07
2023-02-05T17:42:41.067Z,2.78
2023-02-05T17:45:19.799Z,3.55
2023-02-05T17:47:47.665Z,3.50
2023-02-05T17:50:15.510Z,3.72
2023-02-05T17:52:44.611Z,4.30
2023-02-05T17:55:17.255Z,5.20
2023-02-05T17:57:45.407Z,5.57
2023-02-05T18:00:19.458Z,5.60
2023-02-05T18:02:47.036Z,6.38
2023-02-05T18:05:14.312Z,7.50
2023-02-05T18:07:46.312Z,7.88
2023-02-05T18:10:23.607Z,6.63
2023-02-05T18:12:52.001Z,6.63
2023-02-05T18:15:19.846Z,7.72
2023-02-05T18:17:47.774Z,6.65
2023-02-05T18:20:16.253Z,7.22
2023-02-05T18:22:43.448Z,7.75
2023-02-05T18:25:10.392Z,7.70
2023-02-05T18:27:38.256Z,7.78
2023-02-05T18:30:05.859Z,8.02
2023-02-05T18:32:33.324Z,7.45
2023-02-05T18:35:00.547Z,7.90
2023-02-05T18:37:27.998Z,7.78
2023-02-05T18:39:54.979Z,8.82
2023-02-05T18:42:23.222Z,8.02
2023-02-05T18:44:50.336Z,7.90
2023-02-05T18:47:17.522Z,8.52
2023-02-05T18:49:44.629Z,9.02
2023-02-05T18:52:14.068Z,8.60
2023-02-05T18:54:41.004Z,9.05
2023-02-05T18:57:08.290Z,8.40
2023-02-05T18:59:36.871Z,9.27
2023-02-05T19:02:04.158Z,9.15
2023-02-05T19:04:33.152Z,9.48
2023-02-05T19:07:01.187Z,9.30
2023-02-05T19:09:28.616Z,11.02
2023-02-05T19:11:56.321Z,10.48
2023-02-05T19:14:24.763Z,10.27
2023-02-05T19:16:53.072Z,10.75
2023-02-05T19:19:23.417Z,14.02
2023-02-05T19:21:53.684Z,12.45
2023-02-05T19:24:21.613Z,12.30
2023-02-05T19:26:50.004Z,12.90
2023-02-05T19:29:19.513Z,13.10
2023-02-05T19:31:47.298Z,13.45
2023-02-05T19:34:14.711Z,12.98
2023-02-05T19:36:42.492Z,13.05
2023-02-05T19:39:12.082Z,15.15
2023-02-05T19:41:40.071Z,12.52
2023-02-05T19:44:08.684Z,12.27
2023-02-05T19:46:47.260Z,12.25
2023-02-05T19:49:21.841Z,13.65
2023-02-05T19:51:52.086Z,13.95
2023-02-05T19:54:21.579Z,14.32
2023-02-05T19:56:49.488Z,13.13
2023-02-05T19:59:16.875Z,14.07
2023-02-05T20:01:45.227Z,14.57
2023-02-05T20:04:18.592Z,13.15
2023-02-05T20:06:47.037Z,14.00
2023-02-05T20:09:16.340Z,14.60
2023-02-05T20:11:46.839Z,15.15
2023-02-05T20:14:14.947Z,13.38
2023-02-05T20:16:45.138Z,14.00
2023-02-05T20:19:14.447Z,13.88
2023-02-05T20:21:42.242Z,14.27
2023-02-05T20:24:09.697Z,15.10
2023-02-05T20:26:37.771Z,13.88
2023-02-05T20:29:23.948Z,15.40
2023-02-05T20:31:52.580Z,14.75
2023-02-05T20:34:22.625Z,15.65
2023-02-05T20:36:51.748Z,17.03
2023-02-05T20:39:20.279Z,17.38
2023-02-05T20:41:50.008Z,17.00
2023-02-05T20:44:18.140Z,18.05
2023-02-05T20:46:45.479Z,17.20
2023-02-05T20:49:13.532Z,17.65
2023-02-05T20:51:41.337Z,18.55
2023-02-05T20:54:08.508Z,18.92
2023-02-05T20:56:36.034Z,19.40
2023-02-05T20:59:05.263Z,19.08
2023-02-05T21:01:34.734Z,20.98
2023-02-05T21:04:04.014Z,21.02
2023-02-05T21:06:36.930Z,20.73
2023-02-05T21:09:05.855Z,21.42
2023-02-05T21:11:33.313Z,20.65
2023-02-05T21:14:00.275Z,19.90
2023-02-05T21:16:28.281Z,21.67
2023-02-05T21:18:56.291Z,21.45
2023-02-05T21:21:28.925Z,22.08
2023-02-05T21:24:01.040Z,20.58
2023-02-05T21:26:31.669Z,24.05
2023-02-05T21:29:04.588Z,22.77
2023-02-05T21:31:36.271Z,21.85
2023-02-05T21:34:04.945Z,22.70
2023-02-05T21:36:32.312Z,20.77
2023-02-05T21:39:00.348Z,21.83
2023-02-05T21:41:27.890Z,23.05
2023-02-05T21:43:57.530Z,23.00
2023-02-05T21:46:27.080Z,21.92
2023-02-05T21:48:55.887Z,23.80
2023-02-05T21:51:24.945Z,22.35
2023-02-05T21:53:57.212Z,21.63
2023-02-05T21:56:44.764Z,22.65
2023-02-05T21:59:13.036Z,21.15
2023-02-05T22:01:42.130Z,22.98
2023-02-05T22:04:12.573Z,22.77
2023-02-05T22:06:39.817Z,22.00
2023-02-05T22:09:09.126Z,23.33
2023-02-05T22:11:38.539Z,23.25
2023-02-05T22:14:05.456Z,23.40
2023-02-05T22:16:34.318Z,23.65
2023-02-05T22:19:02.363Z,23.60
2023-02-05T22:21:35.363Z,22.65
2023-02-05T22:24:03.642Z,25.45
2023-02-05T22:26:34.388Z,24.67
2023-02-05T22:29:04.597Z,25.50
2023-02-05T22:31:33.142Z,23.85
2023-02-05T22:34:00.052Z,22.33
2023-02-05T22:36:30.030Z,24.77
2023-02-05T22:38:57.405Z,24.08
2023-02-05T22:41:27.158Z,24.50
2023-02-05T22:43:55.584Z,23.17
2023-02-05T22:46:25.002Z,23.75
2023-02-05T22:48:53.566Z,24.45
2023-02-05T22:51:26.858Z,24.48
2023-02-05T22:53:54.560Z,24.83
2023-02-05T22:56:22.367Z,23.67
2023-02-05T22:58:50.836Z,25.23
2023-02-05T23:01:24.017Z,22.83
2023-02-05T23:03:52.282Z,25.10
2023-02-05T23:06:26.231Z,25.65
2023-02-05T23:09:14.965Z,24.80
2023-02-05T23:11:43.218Z,27.10
2023-02-05T23:14:11.811Z,25.63
2023-02-05T23:16:41.832Z,24.92
2023-02-05T23:19:12.549Z,26.67
2023-02-05T23:21:41.782Z,26.80
2023-02-05T23:24:09.192Z,27.02
2023-02-05T23:26:42.718Z,27.83
2023-02-05T23:29:12.389Z,26.38
2023-02-05T23:31:40.673Z,26.70
2023-02-05T23:34:08.446Z,28.85
2023-02-05T23:36:35.647Z,28.80
2023-02-05T23:39:02.631Z,30.08
2023-02-05T23:41:35.851Z,30.48
2023-02-05T23:44:20.171Z,30.08
2023-02-05T23:46:49.128Z,32.83
2023-02-05T23:49:16.193Z,29.67
2023-02-05T23:51:43.725Z,32.58
2023-02-05T23:54:12.101Z,33.33
2023-02-05T23:56:39.993Z,35.65
2023-02-05T23:59:08.314Z,33.20
